createdAt,value
2019-03-29T00:00:48.517Z,0
2019-03-29T00:01:48.573Z,0
2019-03-29T00:02:48.481Z,0
2019-03-29T00:03:48.540Z,0
2019-03-29T00:04:48.517Z,0
2019-03-29T00:05:48.443Z,0
2019-03-29T00:06:48.520Z,0
2019-03-29T00:07:48.523Z,0
2019-03-29T00:08:48.491Z,0
2019-03-29T00:09:48.446Z,0
2019-03-29T00:10:48.520Z,0
2019-03-29T00:11:48.517Z,0
2019-03-29T00:12:48.509Z,0
2019-03-29T00:13:49.347Z,0
2019-03-29T00:14:48.438Z,0
2019-03-29T00:15:48.515Z,0
2019-03-29T00:16:48.481Z,0
2019-03-29T00:17:48.391Z,0
2019-03-29T00:18:48.467Z,0
2019-03-29T00:19:48.513Z,0
2019-03-29T00:20:48.460Z,0
2019-03-29T00:21:48.488Z,0
2019-03-29T00:22:48.455Z,0
2019-03-29T00:23:49.133Z,0
2019-03-29T00:24:48.538Z,0
2019-03-29T00:25:48.533Z,0
2019-03-29T00:26:48.531Z,0
2019-03-29T00:27:48.531Z,0
2019-03-29T00:28:48.474Z,0
2019-03-29T00:29:48.550Z,0
2019-03-29T00:30:48.480Z,0
2019-03-29T00:31:48.496Z,0
2019-03-29T00:32:48.534Z,0
2019-03-29T00:33:48.469Z,0
2019-03-29T00:34:48.480Z,0
2019-03-29T00:35:48.470Z,0
2019-03-29T00:36:48.540Z,0
2019-03-29T00:37:53.723Z,0
2019-03-29T00:38:48.997Z,0
2019-03-29T00:39:48.544Z,0
2019-03-29T00:40:48.552Z,0
2019-03-29T00:41:48.536Z,0
2019-03-29T00:42:48.601Z,0
2019-03-29T00:43:48.546Z,0
2019-03-29T00:44:48.500Z,0
2019-03-29T00:45:48.467Z,0
2019-03-29T00:46:48.476Z,0
2019-03-29T00:47:48.536Z,0
2019-03-29T00:48:48.475Z,0
2019-03-29T00:49:48.536Z,0
2019-03-29T00:50:48.468Z,0
2019-03-29T00:51:48.558Z,0
2019-03-29T00:52:48.479Z,0
2019-03-29T00:53:48.638Z,0
2019-03-29T00:54:48.493Z,0
2019-03-29T00:55:48.518Z,0
2019-03-29T00:56:48.569Z,0
2019-03-29T00:57:48.565Z,0
2019-03-29T00:58:48.892Z,0
2019-03-29T00:59:48.645Z,0
2019-03-29T01:00:48.506Z,0
2019-03-29T01:01:48.500Z,0
2019-03-29T01:02:48.489Z,0
2019-03-29T01:03:48.565Z,0
2019-03-29T01:04:48.499Z,0
2019-03-29T01:05:48.500Z,0
2019-03-29T01:06:48.490Z,0
2019-03-29T01:07:48.571Z,0
2019-03-29T01:08:48.512Z,0
2019-03-29T01:09:48.563Z,0
2019-03-29T01:10:48.906Z,0
2019-03-29T01:11:48.426Z,0
2019-03-29T01:12:48.412Z,0
2019-03-29T01:13:48.417Z,0
2019-03-29T01:14:48.446Z,0
2019-03-29T01:15:48.510Z,0
2019-03-29T01:16:48.446Z,0
2019-03-29T01:17:48.389Z,0
2019-03-29T01:18:48.481Z,0
2019-03-29T01:19:48.460Z,0
2019-03-29T01:20:48.736Z,0
2019-03-29T01:21:48.560Z,0
2019-03-29T01:22:48.566Z,0
2019-03-29T01:23:49.262Z,0
2019-03-29T01:24:48.450Z,0
2019-03-29T01:25:48.564Z,0
2019-03-29T01:26:48.566Z,0
2019-03-29T01:27:48.505Z,0
2019-03-29T01:28:48.565Z,0
2019-03-29T01:29:48.512Z,0
2019-03-29T01:30:48.914Z,0
2019-03-29T01:31:48.553Z,0
2019-03-29T01:32:48.527Z,0
2019-03-29T01:33:48.424Z,0
2019-03-29T01:34:48.467Z,0
2019-03-29T01:35:48.478Z,0
2019-03-29T01:36:48.497Z,0
2019-03-29T01:37:48.430Z,0
2019-03-29T01:38:48.530Z,0
2019-03-29T01:39:48.521Z,0
2019-03-29T01:40:48.558Z,0
2019-03-29T01:41:48.525Z,0
2019-03-29T01:42:48.597Z,0
2019-03-29T01:43:48.590Z,0
2019-03-29T01:44:48.598Z,0
2019-03-29T01:45:48.537Z,0
2019-03-29T01:46:48.617Z,0
2019-03-29T01:47:48.597Z,0
2019-03-29T01:48:49.064Z,0
2019-03-29T01:49:48.600Z,0
2019-03-29T01:50:48.540Z,0
2019-03-29T01:51:48.513Z,0
2019-03-29T01:52:48.508Z,0
2019-03-29T01:53:48.457Z,0
2019-03-29T01:54:48.488Z,0
2019-03-29T01:55:48.879Z,0
2019-03-29T01:56:48.455Z,0
2019-03-29T01:57:48.490Z,0
2019-03-29T01:58:48.577Z,0
2019-03-29T01:59:48.578Z,0
2019-03-29T02:00:48.475Z,0
2019-03-29T02:01:48.523Z,0
2019-03-29T02:02:48.571Z,0
2019-03-29T02:03:48.528Z,0
2019-03-29T02:04:48.530Z,0
2019-03-29T02:05:48.608Z,0
2019-03-29T02:06:48.612Z,0
2019-03-29T02:07:48.567Z,0
2019-03-29T02:08:48.537Z,0
2019-03-29T02:09:48.629Z,0
2019-03-29T02:10:49.008Z,0
2019-03-29T02:11:48.597Z,0
2019-03-29T02:12:48.534Z,0
2019-03-29T02:13:48.604Z,0
2019-03-29T02:14:48.528Z,0
2019-03-29T02:15:48.601Z,0
2019-03-29T02:16:48.603Z,0
2019-03-29T02:17:48.530Z,0
2019-03-29T02:18:48.611Z,0
2019-03-29T02:19:48.534Z,0
2019-03-29T02:20:49.371Z,0
2019-03-29T02:21:48.534Z,0
2019-03-29T02:22:48.665Z,0
2019-03-29T02:23:48.544Z,0
2019-03-29T02:24:49.904Z,0
2019-03-29T02:25:48.539Z,0
2019-03-29T02:26:48.609Z,0
2019-03-29T02:27:48.611Z,0
2019-03-29T02:28:48.574Z,0
2019-03-29T02:29:48.616Z,0
2019-03-29T02:30:48.550Z,0
2019-03-29T02:31:48.614Z,0
2019-03-29T02:32:48.615Z,0
2019-03-29T02:33:48.924Z,0
2019-03-29T02:34:48.554Z,0
2019-03-29T02:35:48.641Z,0
2019-03-29T02:36:48.620Z,0
2019-03-29T02:37:48.615Z,0
2019-03-29T02:38:55.682Z,0
2019-03-29T02:39:48.622Z,0
2019-03-29T02:40:48.619Z,0
2019-03-29T02:41:48.620Z,0
2019-03-29T02:42:48.572Z,0
2019-03-29T02:43:48.624Z,0
2019-03-29T02:44:48.554Z,0
2019-03-29T02:45:48.521Z,0
2019-03-29T02:46:48.566Z,0
2019-03-29T02:47:48.830Z,0
2019-03-29T02:48:48.561Z,0
2019-03-29T02:49:48.627Z,0
2019-03-29T02:50:48.695Z,0
2019-03-29T02:51:48.638Z,0
2019-03-29T02:52:48.577Z,0
2019-03-29T02:53:48.592Z,0
2019-03-29T02:54:48.511Z,0
2019-03-29T02:55:48.631Z,0
2019-03-29T02:56:48.632Z,0
2019-03-29T02:57:48.619Z,0
2019-03-29T02:58:48.630Z,0
2019-03-29T02:59:48.548Z,0
2019-03-29T03:00:48.575Z,0
2019-03-29T03:01:48.588Z,0
2019-03-29T03:02:48.574Z,0
2019-03-29T03:03:48.586Z,0
2019-03-29T03:04:48.602Z,0
2019-03-29T03:05:48.584Z,0
2019-03-29T03:06:48.594Z,0
2019-03-29T03:07:48.671Z,0
2019-03-29T03:08:48.649Z,0
2019-03-29T03:09:48.587Z,0
2019-03-29T03:10:48.652Z,0
2019-03-29T03:11:48.576Z,0
2019-03-29T03:12:48.638Z,0
2019-03-29T03:13:48.624Z,0
2019-03-29T03:14:48.639Z,0
2019-03-29T03:15:48.640Z,0
2019-03-29T03:16:48.522Z,0
2019-03-29T03:17:48.551Z,0
2019-03-29T03:18:48.530Z,0
2019-03-29T03:19:48.595Z,0
2019-03-29T03:20:48.613Z,0
2019-03-29T03:21:48.595Z,0
2019-03-29T03:22:48.597Z,0
2019-03-29T03:23:48.608Z,0
2019-03-29T03:24:48.605Z,0
2019-03-29T03:25:48.630Z,0
2019-03-29T03:26:48.611Z,0
2019-03-29T03:27:48.521Z,0
2019-03-29T03:28:48.604Z,0
2019-03-29T03:29:48.792Z,0
2019-03-29T03:30:48.642Z,0
2019-03-29T03:31:48.579Z,0
2019-03-29T03:32:48.669Z,0
2019-03-29T03:33:48.610Z,0
2019-03-29T03:34:48.679Z,0
2019-03-29T03:35:48.692Z,0
2019-03-29T03:36:48.669Z,0
2019-03-29T03:37:48.668Z,0
2019-03-29T03:38:48.669Z,0
2019-03-29T03:39:48.681Z,0
2019-03-29T03:40:48.600Z,0
2019-03-29T03:41:48.692Z,0
2019-03-29T03:42:48.678Z,0
2019-03-29T03:43:48.683Z,0
2019-03-29T03:44:48.686Z,0
2019-03-29T03:45:48.611Z,0
2019-03-29T03:46:48.737Z,0
2019-03-29T03:47:48.617Z,0
2019-03-29T03:48:48.688Z,0
2019-03-29T03:49:48.567Z,0
2019-03-29T03:50:48.631Z,0
2019-03-29T03:51:48.574Z,0
2019-03-29T03:52:48.606Z,0
2019-03-29T03:53:48.665Z,0
2019-03-29T03:54:48.602Z,0
2019-03-29T03:55:48.830Z,0
2019-03-29T03:56:48.619Z,0
2019-03-29T03:57:48.678Z,0
2019-03-29T03:58:48.622Z,0
2019-03-29T03:59:48.674Z,0
2019-03-29T04:00:48.681Z,0
2019-03-29T04:01:48.613Z,0
2019-03-29T04:02:48.689Z,0
2019-03-29T04:03:48.585Z,0
2019-03-29T04:04:48.623Z,0
2019-03-29T04:05:48.645Z,0
2019-03-29T04:06:48.640Z,0
2019-03-29T04:07:48.621Z,0
2019-03-29T04:08:48.705Z,0
2019-03-29T04:09:50.581Z,0
2019-03-29T04:10:48.701Z,0
2019-03-29T04:11:48.712Z,0
2019-03-29T04:12:48.634Z,0
2019-03-29T04:13:48.625Z,0
2019-03-29T04:14:48.692Z,0
2019-03-29T04:15:48.636Z,0
2019-03-29T04:16:48.639Z,0
2019-03-29T04:17:48.648Z,0
2019-03-29T04:18:48.635Z,0
2019-03-29T04:19:48.701Z,0
2019-03-29T04:20:48.705Z,0
2019-03-29T04:21:48.649Z,0
2019-03-29T04:22:48.600Z,0
2019-03-29T04:23:48.586Z,0
2019-03-29T04:24:48.568Z,0
2019-03-29T04:25:48.594Z,0
2019-03-29T04:26:48.638Z,0
2019-03-29T04:27:48.661Z,0
2019-03-29T04:29:03.280Z,0
2019-03-29T04:29:48.599Z,0
2019-03-29T04:30:48.685Z,0
2019-03-29T04:31:48.624Z,0
2019-03-29T04:32:48.711Z,0
2019-03-29T04:33:48.711Z,0
2019-03-29T04:34:48.725Z,0
2019-03-29T04:35:48.636Z,0
2019-03-29T04:36:48.718Z,0
2019-03-29T04:37:48.651Z,0
2019-03-29T04:38:48.659Z,0
2019-03-29T04:40:07.223Z,0
2019-03-29T04:40:48.644Z,0
2019-03-29T04:41:48.718Z,0
2019-03-29T04:42:48.723Z,0
2019-03-29T04:43:48.718Z,0
2019-03-29T04:44:48.724Z,0
2019-03-29T04:45:48.662Z,0
2019-03-29T04:46:48.646Z,0
2019-03-29T04:47:48.711Z,0
2019-03-29T04:48:48.722Z,0
2019-03-29T04:49:48.726Z,0
2019-03-29T04:50:48.736Z,0
2019-03-29T04:51:48.723Z,0
2019-03-29T04:52:48.638Z,0
2019-03-29T04:53:48.644Z,0
2019-03-29T04:54:48.714Z,0
2019-03-29T04:55:48.720Z,0
2019-03-29T04:56:48.713Z,0
2019-03-29T04:57:48.714Z,0
2019-03-29T04:58:48.712Z,0
2019-03-29T04:59:48.716Z,0
2019-03-29T05:00:48.658Z,0
2019-03-29T05:01:48.659Z,0
2019-03-29T05:02:48.652Z,0
2019-03-29T05:03:48.698Z,0
2019-03-29T05:04:48.652Z,0
2019-03-29T05:05:48.610Z,0
2019-03-29T05:06:48.677Z,0
2019-03-29T05:07:48.682Z,0
2019-03-29T05:08:48.672Z,0
2019-03-29T05:09:48.733Z,0
2019-03-29T05:10:48.608Z,0
2019-03-29T05:11:48.665Z,0
2019-03-29T05:12:48.634Z,0
2019-03-29T05:13:48.726Z,0
2019-03-29T05:14:48.726Z,0
2019-03-29T05:15:48.669Z,0
2019-03-29T05:16:48.712Z,0
2019-03-29T05:17:48.620Z,0
2019-03-29T05:18:48.726Z,0
2019-03-29T05:19:48.715Z,0
2019-03-29T05:20:48.629Z,0
2019-03-29T05:21:48.603Z,0
2019-03-29T05:22:48.750Z,0
2019-03-29T05:23:48.745Z,0
2019-03-29T05:24:48.672Z,0
2019-03-29T05:25:48.702Z,0
2019-03-29T05:26:48.673Z,0
2019-03-29T05:27:48.678Z,0
2019-03-29T05:28:48.758Z,0
2019-03-29T05:29:48.809Z,0
2019-03-29T05:30:48.738Z,0
2019-03-29T05:31:48.749Z,0
2019-03-29T05:32:48.664Z,0
2019-03-29T05:33:48.668Z,0
2019-03-29T05:34:48.663Z,0
2019-03-29T05:35:48.664Z,0
2019-03-29T05:36:48.655Z,0
2019-03-29T05:37:48.654Z,14
2019-03-29T05:38:48.653Z,14
2019-03-29T05:39:48.742Z,14
2019-03-29T05:40:48.742Z,15
2019-03-29T05:41:48.679Z,18
2019-03-29T05:42:48.734Z,19
2019-03-29T05:43:48.624Z,19
2019-03-29T05:44:48.744Z,20
2019-03-29T05:45:48.625Z,20
2019-03-29T05:46:48.655Z,21
2019-03-29T05:47:48.682Z,22
2019-03-29T05:48:48.692Z,23
2019-03-29T05:49:48.727Z,24
2019-03-29T05:50:48.756Z,24
2019-03-29T05:51:48.656Z,25
2019-03-29T05:52:48.632Z,27
2019-03-29T05:53:48.650Z,28
2019-03-29T05:54:48.719Z,28
2019-03-29T05:55:48.704Z,28
2019-03-29T05:56:48.662Z,30
2019-03-29T05:57:48.754Z,30
2019-03-29T05:58:48.659Z,31
2019-03-29T05:59:48.697Z,32
2019-03-29T06:00:48.751Z,33
2019-03-29T06:01:48.699Z,33
2019-03-29T06:02:48.687Z,34
2019-03-29T06:03:48.664Z,35
2019-03-29T06:04:48.724Z,36
2019-03-29T06:05:48.704Z,36
2019-03-29T06:06:48.718Z,37
2019-03-29T06:07:48.766Z,39
2019-03-29T06:08:48.711Z,39
2019-03-29T06:09:48.669Z,40
2019-03-29T06:10:49.752Z,41
2019-03-29T06:11:48.769Z,39
2019-03-29T06:12:48.706Z,40
2019-03-29T06:13:48.722Z,42
2019-03-29T06:14:48.710Z,43
2019-03-29T06:15:48.847Z,44
2019-03-29T06:16:48.726Z,45
2019-03-29T06:17:49.280Z,45
2019-03-29T06:18:48.787Z,46
2019-03-29T06:19:48.709Z,46
2019-03-29T06:20:48.708Z,47
2019-03-29T06:21:48.718Z,47
2019-03-29T06:22:48.687Z,48
2019-03-29T06:23:48.721Z,48
2019-03-29T06:24:48.763Z,49
2019-03-29T06:25:48.689Z,51
2019-03-29T06:26:48.763Z,52
2019-03-29T06:27:48.775Z,52
2019-03-29T06:28:48.770Z,53
2019-03-29T06:29:48.680Z,45
2019-03-29T06:30:48.677Z,46
2019-03-29T06:31:48.712Z,55
2019-03-29T06:32:48.795Z,55
2019-03-29T06:33:48.752Z,56
2019-03-29T06:34:48.726Z,56
2019-03-29T06:35:48.791Z,56
2019-03-29T06:36:48.724Z,56
2019-03-29T06:37:48.786Z,57
2019-03-29T06:38:48.799Z,58
2019-03-29T06:39:48.801Z,32
2019-03-29T06:41:01.785Z,88
2019-03-29T06:41:48.729Z,86
2019-03-29T06:42:48.797Z,88
2019-03-29T06:43:48.790Z,94
2019-03-29T06:44:48.809Z,96
2019-03-29T06:45:48.807Z,97
2019-03-29T06:46:48.871Z,104
2019-03-29T06:47:48.730Z,134
2019-03-29T06:48:48.802Z,136
2019-03-29T06:49:48.813Z,140
2019-03-29T06:50:48.948Z,143
2019-03-29T06:51:48.734Z,145
2019-03-29T06:52:48.726Z,147
2019-03-29T06:53:48.658Z,147
2019-03-29T06:54:48.735Z,148
2019-03-29T06:55:48.709Z,151
2019-03-29T06:56:48.668Z,157
2019-03-29T06:57:48.679Z,177
2019-03-29T06:58:48.694Z,180
2019-03-29T06:59:48.661Z,176
2019-03-29T07:00:48.796Z,178
2019-03-29T07:01:48.667Z,174
2019-03-29T07:02:48.802Z,187
2019-03-29T07:03:48.735Z,192
2019-03-29T07:04:48.805Z,196
2019-03-29T07:05:48.740Z,237
2019-03-29T07:06:48.745Z,243
2019-03-29T07:07:48.806Z,247
2019-03-29T07:08:48.741Z,254
2019-03-29T07:09:48.765Z,257
2019-03-29T07:20:48.806Z,321
2019-03-29T07:21:48.724Z,350
2019-03-29T07:22:48.847Z,353
2019-03-29T07:23:48.755Z,358
2019-03-29T07:24:48.831Z,358
2019-03-29T07:25:48.773Z,361
2019-03-29T07:26:48.788Z,367
2019-03-29T07:27:52.193Z,374
2019-03-29T07:28:48.828Z,376
2019-03-29T07:29:48.848Z,380
2019-03-29T07:30:48.777Z,380
2019-03-29T07:31:48.835Z,388
2019-03-29T07:32:48.762Z,389
2019-03-29T07:33:48.832Z,425
2019-03-29T07:34:49.231Z,430
2019-03-29T07:35:48.753Z,435
2019-03-29T07:36:48.830Z,437
2019-03-29T07:37:48.760Z,435
2019-03-29T07:38:48.826Z,438
2019-03-29T07:39:48.759Z,449
2019-03-29T07:40:48.829Z,451
2019-03-29T07:41:48.757Z,456
2019-03-29T07:42:48.767Z,453
2019-03-29T07:43:48.840Z,459
2019-03-29T07:44:48.833Z,461
2019-03-29T07:45:48.761Z,467
2019-03-29T07:46:48.836Z,479
2019-03-29T07:47:48.766Z,481
2019-03-29T07:48:48.840Z,483
2019-03-29T07:49:48.827Z,480
2019-03-29T07:50:48.768Z,484
2019-03-29T07:51:48.764Z,485
2019-03-29T07:52:48.850Z,498
2019-03-29T07:53:48.856Z,501
2019-03-29T07:54:48.848Z,502
2019-03-29T07:55:48.856Z,503
2019-03-29T07:56:48.852Z,497
2019-03-29T07:57:48.861Z,505
2019-03-29T07:58:48.816Z,507
2019-03-29T07:59:48.816Z,512
2019-03-29T08:00:48.855Z,515
2019-03-29T08:01:48.785Z,519
2019-03-29T08:02:48.788Z,523
2019-03-29T08:03:51.314Z,525
2019-03-29T08:04:48.866Z,526
2019-03-29T08:05:48.786Z,529
2019-03-29T08:06:48.786Z,532
2019-03-29T08:07:48.860Z,533
2019-03-29T08:08:48.856Z,535
2019-03-29T08:09:48.791Z,529
2019-03-29T08:10:48.862Z,543
2019-03-29T08:11:48.790Z,545
2019-03-29T08:12:49.696Z,551
2019-03-29T08:13:48.886Z,550
2019-03-29T08:14:48.808Z,553
2019-03-29T08:15:48.868Z,548
2019-03-29T08:16:48.824Z,564
2019-03-29T08:17:48.866Z,567
2019-03-29T08:18:48.762Z,572
2019-03-29T08:20:05.355Z,575
2019-03-29T08:20:48.805Z,567
2019-03-29T08:21:48.792Z,569
2019-03-29T08:22:48.874Z,575
2019-03-29T08:23:48.788Z,587
2019-03-29T08:24:48.811Z,592
2019-03-29T08:25:48.863Z,596
2019-03-29T08:26:48.861Z,599
2019-03-29T08:27:48.864Z,596
2019-03-29T08:28:48.865Z,600
2019-03-29T08:29:48.860Z,608
2019-03-29T08:30:48.796Z,611
2019-03-29T08:31:48.868Z,615
2019-03-29T08:32:48.790Z,609
2019-03-29T08:33:48.807Z,612
2019-03-29T08:34:48.814Z,617
2019-03-29T08:35:48.813Z,624
2019-03-29T08:36:48.886Z,628
2019-03-29T08:37:48.897Z,632
2019-03-29T08:38:48.810Z,633
2019-03-29T08:39:48.903Z,638
2019-03-29T08:40:48.809Z,628
2019-03-29T08:41:59.554Z,642
2019-03-29T08:42:48.894Z,647
2019-03-29T08:43:48.799Z,648
2019-03-29T08:44:48.807Z,653
2019-03-29T08:45:48.882Z,656
2019-03-29T08:46:48.807Z,652
2019-03-29T08:47:48.879Z,650
2019-03-29T08:48:48.810Z,666
2019-03-29T08:49:48.879Z,666
2019-03-29T08:50:48.809Z,667
2019-03-29T08:51:48.881Z,670
2019-03-29T08:52:48.819Z,667
2019-03-29T08:53:48.881Z,676
2019-03-29T08:54:51.184Z,678
2019-03-29T08:55:48.884Z,681
2019-03-29T08:56:48.816Z,684
2019-03-29T08:57:48.889Z,689
2019-03-29T08:58:48.898Z,694
2019-03-29T08:59:48.830Z,687
2019-03-29T09:00:48.902Z,691
2019-03-29T09:01:48.887Z,701
2019-03-29T09:02:48.813Z,702
2019-03-29T09:04:02.715Z,705
2019-03-29T09:04:48.866Z,704
2019-03-29T09:05:48.864Z,703
2019-03-29T09:06:53.634Z,704
2019-03-29T09:07:48.902Z,707
2019-03-29T09:08:48.847Z,717
2019-03-29T09:09:48.839Z,716
2019-03-29T09:10:48.830Z,725
2019-03-29T09:11:48.902Z,730
2019-03-29T09:12:48.908Z,736
2019-03-29T09:13:48.813Z,732
2019-03-29T09:14:48.931Z,735
2019-03-29T09:15:48.899Z,737
2019-03-29T09:16:48.924Z,743
2019-03-29T09:17:48.841Z,743
2019-03-29T09:18:48.842Z,746
2019-03-29T09:19:48.861Z,741
2019-03-29T09:20:48.922Z,745
2019-03-29T09:21:48.857Z,749
2019-03-29T09:22:48.858Z,752
2019-03-29T09:23:48.841Z,755
2019-03-29T09:24:48.943Z,757
2019-03-29T09:25:48.924Z,758
2019-03-29T09:26:48.841Z,760
2019-03-29T09:27:48.915Z,755
2019-03-29T09:28:48.871Z,759
2019-03-29T09:29:48.917Z,768
2019-03-29T09:30:48.891Z,769
2019-03-29T09:31:48.919Z,775
2019-03-29T09:32:51.230Z,774
2019-03-29T09:33:48.720Z,783
2019-03-29T09:34:48.848Z,790
2019-03-29T09:35:48.715Z,791
2019-03-29T09:36:48.821Z,791
2019-03-29T09:37:48.724Z,797
2019-03-29T09:38:48.822Z,791
2019-03-29T09:39:48.789Z,805
2019-03-29T09:40:58.237Z,808
2019-03-29T09:41:48.905Z,807
2019-03-29T09:42:52.143Z,809
2019-03-29T09:43:48.822Z,821
2019-03-29T09:44:48.821Z,832
2019-03-29T09:45:48.856Z,837
2019-03-29T09:46:48.852Z,845
2019-03-29T09:47:48.863Z,846
2019-03-29T09:48:48.908Z,836
2019-03-29T09:49:48.779Z,815
2019-03-29T09:50:50.758Z,865
2019-03-29T09:51:48.804Z,875
2019-03-29T09:52:51.391Z,766
2019-03-29T09:53:48.931Z,872
2019-03-29T09:54:48.865Z,638
2019-03-29T09:55:48.862Z,866
2019-03-29T09:56:49.024Z,863
2019-03-29T09:57:48.883Z,858
2019-03-29T09:58:48.940Z,867
2019-03-29T09:59:48.866Z,857
2019-03-29T10:00:48.871Z,823
2019-03-29T10:01:48.874Z,842
2019-03-29T10:02:48.939Z,847
2019-03-29T10:03:48.865Z,865
2019-03-29T10:04:48.929Z,588
2019-03-29T10:05:48.847Z,580
2019-03-29T10:06:48.931Z,575
2019-03-29T10:07:48.936Z,853
2019-03-29T10:08:48.937Z,847
2019-03-29T10:09:48.938Z,854
2019-03-29T10:10:48.863Z,847
2019-03-29T10:11:48.943Z,850
2019-03-29T10:12:48.854Z,854
2019-03-29T10:13:49.003Z,858
2019-03-29T10:14:48.959Z,857
2019-03-29T10:15:51.369Z,857
2019-03-29T10:16:48.879Z,852
2019-03-29T10:17:48.957Z,852
2019-03-29T10:18:48.949Z,852
2019-03-29T10:19:49.990Z,857
2019-03-29T10:20:48.970Z,862
2019-03-29T10:21:48.967Z,857
2019-03-29T10:22:48.998Z,864
2019-03-29T10:23:48.954Z,867
2019-03-29T10:24:48.899Z,860
2019-03-29T10:25:48.958Z,866
2019-03-29T10:26:48.940Z,873
2019-03-29T10:27:48.888Z,872
2019-03-29T10:28:48.958Z,863
2019-03-29T10:29:48.893Z,844
2019-03-29T10:30:48.893Z,837
2019-03-29T10:31:48.957Z,855
2019-03-29T10:32:49.013Z,848
2019-03-29T10:33:49.449Z,860
2019-03-29T10:34:48.960Z,864
2019-03-29T10:35:53.081Z,864
2019-03-29T10:36:48.967Z,856
2019-03-29T10:37:48.971Z,860
2019-03-29T10:38:48.971Z,871
2019-03-29T10:39:48.895Z,869
2019-03-29T10:40:48.970Z,867
2019-03-29T10:41:48.912Z,855
2019-03-29T10:42:57.700Z,872
2019-03-29T10:43:48.962Z,868
2019-03-29T10:44:49.536Z,867
2019-03-29T10:45:48.856Z,862
2019-03-29T10:46:48.959Z,856
2019-03-29T10:47:48.900Z,880
2019-03-29T10:48:48.867Z,867
2019-03-29T10:49:48.952Z,777
2019-03-29T10:50:48.967Z,805
2019-03-29T10:51:48.897Z,842
2019-03-29T10:52:48.888Z,862
2019-03-29T10:53:48.907Z,837
2019-03-29T10:54:50.089Z,864
2019-03-29T10:55:48.978Z,861
2019-03-29T10:56:48.974Z,876
2019-03-29T10:57:48.905Z,886
2019-03-29T10:58:48.983Z,882
2019-03-29T10:59:48.921Z,873
2019-03-29T11:00:48.912Z,872
2019-03-29T11:01:48.979Z,867
2019-03-29T11:02:48.926Z,863
2019-03-29T11:03:48.869Z,877
2019-03-29T11:04:48.960Z,877
2019-03-29T11:05:48.876Z,881
2019-03-29T11:06:48.886Z,884
2019-03-29T11:07:48.979Z,878
2019-03-29T11:08:48.865Z,884
2019-03-29T11:09:48.879Z,889
2019-03-29T11:10:48.993Z,889
2019-03-29T11:11:48.964Z,890
2019-03-29T11:12:48.888Z,889
2019-03-29T11:13:48.994Z,887
2019-03-29T11:14:48.987Z,885
2019-03-29T11:15:48.987Z,887
2019-03-29T11:16:48.923Z,883
2019-03-29T11:17:48.924Z,881
2019-03-29T11:18:48.923Z,885
2019-03-29T11:19:49.003Z,878
2019-03-29T11:20:49.000Z,877
2019-03-29T11:21:48.998Z,874
2019-03-29T11:22:48.929Z,878
2019-03-29T11:23:49.001Z,875
2019-03-29T11:24:48.986Z,882
2019-03-29T11:25:49.134Z,874
2019-03-29T11:26:48.900Z,873
2019-03-29T11:27:48.999Z,883
2019-03-29T11:28:48.996Z,874
2019-03-29T11:29:48.972Z,882
2019-03-29T11:30:49.009Z,881
2019-03-29T11:31:48.934Z,881
2019-03-29T11:32:49.003Z,872
2019-03-29T11:33:48.953Z,873
2019-03-29T11:34:48.961Z,870
2019-03-29T11:35:48.939Z,864
2019-03-29T11:36:52.297Z,849
2019-03-29T11:37:48.940Z,851
2019-03-29T11:38:49.011Z,851
2019-03-29T11:39:48.944Z,850
2019-03-29T11:40:49.017Z,866
2019-03-29T11:41:48.904Z,866
2019-03-29T11:42:48.939Z,871
2019-03-29T11:43:48.998Z,869
2019-03-29T11:44:49.001Z,875
2019-03-29T11:45:48.965Z,872
2019-03-29T11:46:49.006Z,870
2019-03-29T11:47:48.918Z,873
2019-03-29T11:48:48.936Z,880
2019-03-29T11:49:52.809Z,874
2019-03-29T11:50:48.936Z,854
2019-03-29T11:51:49.010Z,857
2019-03-29T11:52:48.936Z,859
2019-03-29T11:53:50.954Z,856
2019-03-29T11:54:48.922Z,861
2019-03-29T11:55:49.012Z,857
2019-03-29T11:56:49.016Z,849
2019-03-29T11:57:49.014Z,838
2019-03-29T11:58:49.013Z,852
2019-03-29T11:59:49.022Z,860
2019-03-29T12:00:49.000Z,859
2019-03-29T12:01:48.944Z,847
2019-03-29T12:02:48.947Z,828
2019-03-29T12:03:48.941Z,847
2019-03-29T12:04:48.937Z,842
2019-03-29T12:05:49.020Z,848
2019-03-29T12:06:48.930Z,846
2019-03-29T12:07:48.959Z,831
2019-03-29T12:08:48.952Z,841
2019-03-29T12:09:49.029Z,852
2019-03-29T12:10:49.024Z,849
2019-03-29T12:11:48.948Z,846
2019-03-29T12:12:49.036Z,844
2019-03-29T12:13:49.040Z,847
2019-03-29T12:14:48.970Z,844
2019-03-29T12:15:49.031Z,844
2019-03-29T12:16:48.966Z,841
2019-03-29T12:17:49.040Z,846
2019-03-29T12:18:49.044Z,848
2019-03-29T12:19:49.036Z,850
2019-03-29T12:20:49.058Z,838
2019-03-29T12:21:48.969Z,835
2019-03-29T12:22:49.037Z,839
2019-03-29T12:23:48.996Z,839
2019-03-29T12:24:49.033Z,839
2019-03-29T12:25:48.966Z,837
2019-03-29T12:26:48.934Z,835
2019-03-29T12:27:49.033Z,833
2019-03-29T12:28:48.923Z,835
2019-03-29T12:29:48.940Z,827
2019-03-29T12:30:49.029Z,829
2019-03-29T12:31:49.019Z,823
2019-03-29T12:32:48.940Z,810
2019-03-29T12:33:48.936Z,819
2019-03-29T12:34:48.947Z,830
2019-03-29T12:35:48.984Z,830
2019-03-29T12:36:49.027Z,823
2019-03-29T12:37:48.980Z,817
2019-03-29T12:38:49.037Z,822
2019-03-29T12:39:49.028Z,823
2019-03-29T12:40:48.924Z,826
2019-03-29T12:41:48.945Z,824
2019-03-29T12:42:48.946Z,822
2019-03-29T12:43:55.443Z,822
2019-03-29T12:44:48.992Z,822
2019-03-29T12:45:48.997Z,811
2019-03-29T12:46:48.988Z,816
2019-03-29T12:47:49.062Z,813
2019-03-29T12:48:50.485Z,813
2019-03-29T12:49:49.055Z,810
2019-03-29T12:50:48.994Z,790
2019-03-29T12:51:48.992Z,798
2019-03-29T12:52:49.062Z,800
2019-03-29T12:53:48.989Z,817
2019-03-29T12:54:49.061Z,814
2019-03-29T12:55:49.061Z,808
2019-03-29T12:56:49.000Z,799
2019-03-29T12:57:48.994Z,803
2019-03-29T12:58:48.993Z,782
2019-03-29T12:59:49.067Z,797
2019-03-29T13:00:48.999Z,795
2019-03-29T13:01:49.114Z,794
2019-03-29T13:02:49.011Z,795
2019-03-29T13:03:49.082Z,784
2019-03-29T13:04:49.076Z,784
2019-03-29T13:05:49.007Z,781
2019-03-29T13:06:49.069Z,782
2019-03-29T13:07:49.079Z,782
2019-03-29T13:08:49.071Z,784
2019-03-29T13:09:49.005Z,780
2019-03-29T13:10:49.078Z,761
2019-03-29T13:11:49.078Z,780
2019-03-29T13:12:49.020Z,781
2019-03-29T13:13:49.051Z,778
2019-03-29T13:14:49.073Z,775
2019-03-29T13:15:49.078Z,758
2019-03-29T13:16:49.006Z,767
2019-03-29T13:17:49.086Z,771
2019-03-29T13:18:49.014Z,771
2019-03-29T13:19:49.073Z,768
2019-03-29T13:20:49.084Z,767
2019-03-29T13:21:49.077Z,749
2019-03-29T13:22:49.013Z,755
2019-03-29T13:23:49.091Z,750
2019-03-29T13:24:49.088Z,754
2019-03-29T13:25:49.016Z,752
2019-03-29T13:26:49.103Z,747
2019-03-29T13:27:49.016Z,744
2019-03-29T13:28:49.016Z,548
2019-03-29T13:29:49.023Z,741
2019-03-29T13:30:49.087Z,741
2019-03-29T13:31:49.088Z,739
2019-03-29T13:32:49.083Z,736
2019-03-29T13:33:49.086Z,730
2019-03-29T13:34:51.295Z,715
2019-03-29T13:35:49.159Z,726
2019-03-29T13:36:49.091Z,726
2019-03-29T13:37:49.022Z,724
2019-03-29T13:38:49.023Z,719
2019-03-29T13:39:49.033Z,716
2019-03-29T13:40:49.104Z,698
2019-03-29T13:41:49.057Z,711
2019-03-29T13:42:49.096Z,708
2019-03-29T13:43:48.986Z,707
2019-03-29T13:44:48.954Z,698
2019-03-29T13:45:49.088Z,666
2019-03-29T13:46:49.000Z,664
2019-03-29T13:47:48.998Z,692
2019-03-29T13:48:48.966Z,690
2019-03-29T13:49:49.027Z,692
2019-03-29T13:50:49.079Z,688
2019-03-29T13:51:49.087Z,654
2019-03-29T13:52:48.992Z,653
2019-03-29T13:53:49.104Z,683
2019-03-29T13:54:49.031Z,680
2019-03-29T13:55:49.048Z,679
2019-03-29T13:56:49.114Z,676
2019-03-29T13:57:49.107Z,657
2019-03-29T13:58:49.034Z,652
2019-03-29T13:59:49.106Z,668
2019-03-29T14:00:49.060Z,664
2019-03-29T14:01:49.077Z,662
2019-03-29T14:02:49.078Z,659
2019-03-29T14:03:49.075Z,659
2019-03-29T14:04:49.069Z,658
2019-03-29T14:05:49.096Z,655
2019-03-29T14:06:49.104Z,651
2019-03-29T14:07:49.096Z,646
2019-03-29T14:08:49.005Z,644
2019-03-29T14:09:49.013Z,639
2019-03-29T14:10:49.096Z,635
2019-03-29T14:11:49.091Z,633
2019-03-29T14:12:49.097Z,633
2019-03-29T14:13:49.109Z,631
2019-03-29T14:14:49.005Z,627
2019-03-29T14:15:49.111Z,621
2019-03-29T14:16:49.105Z,613
2019-03-29T14:17:49.107Z,620
2019-03-29T14:18:49.114Z,620
2019-03-29T14:19:49.114Z,618
2019-03-29T14:20:49.114Z,614
2019-03-29T14:21:49.118Z,606